createdAt,value
2022-10-02T00:02:27.841Z,21.04
2022-10-02T00:05:11.479Z,21.46
2022-10-02T00:07:47.336Z,21.81
2022-10-02T00:10:29.125Z,21.02
2022-10-02T00:13:01.498Z,21.26
2022-10-02T00:15:32.623Z,20.84
2022-10-02T00:18:09.701Z,21.54
2022-10-02T00:21:00.509Z,21.37
2022-10-02T00:23:40.494Z,21.31
2022-10-02T00:26:25.769Z,21.02
2022-10-02T00:29:10.500Z,19.93
2022-10-02T00:32:03.822Z,19.23
2022-10-02T00:34:57.434Z,19.65
2022-10-02T00:37:53.592Z,20.71
2022-10-02T00:41:12.602Z,21.20
2022-10-02T00:44:23.946Z,21.58
2022-10-02T00:46:59.681Z,21.60
2022-10-02T00:49:40.352Z,22.43
2022-10-02T00:52:43.986Z,22.21
2022-10-02T00:55:27.724Z,21.53
2022-10-02T00:57:58.924Z,22.12
2022-10-02T01:00:26.999Z,21.48
2022-10-02T01:03:22.922Z,21.92
2022-10-02T01:05:50.462Z,21.37
2022-10-02T01:08:17.716Z,21.07
2022-10-02T01:10:45.967Z,22.07
2022-10-02T01:13:13.019Z,22.02
2022-10-02T01:15:49.258Z,22.80
2022-10-02T01:18:16.364Z,21.98
2022-10-02T01:20:50.720Z,22.83
2022-10-02T01:23:28.025Z,23.20
2022-10-02T01:25:55.206Z,22.80
2022-10-02T01:28:22.825Z,23.19
2022-10-02T01:30:54.964Z,23.03
2022-10-02T01:33:23.071Z,22.77
2022-10-02T01:35:50.348Z,22.92
2022-10-02T01:38:23.254Z,23.57
2022-10-02T01:40:50.222Z,23.42
2022-10-02T01:43:32.515Z,24.17
2022-10-02T01:46:02.252Z,23.91
2022-10-02T01:48:38.838Z,23.84
2022-10-02T01:51:36.316Z,23.87
2022-10-02T01:54:50.363Z,22.32
2022-10-02T01:57:35.762Z,22.25
2022-10-02T02:00:08.877Z,21.35
2022-10-02T02:02:58.386Z,21.52
2022-10-02T02:05:40.277Z,23.16
2022-10-02T02:08:34.742Z,22.51
2022-10-02T02:11:04.654Z,22.74
2022-10-02T02:14:26.170Z,22.59
2022-10-02T02:17:02.957Z,21.74
2022-10-02T02:20:07.827Z,23.26
2022-10-02T02:22:44.634Z,23.31
2022-10-02T02:25:17.946Z,22.51
2022-10-02T02:27:51.085Z,22.78
2022-10-02T02:30:19.330Z,22.48
2022-10-02T02:32:53.424Z,22.60
2022-10-02T02:35:44.991Z,21.38
2022-10-02T02:38:29.529Z,21.88
2022-10-02T02:41:17.885Z,21.82
2022-10-02T02:43:59.131Z,20.74
2022-10-02T02:46:59.913Z,20.96
2022-10-02T02:49:31.008Z,20.63
2022-10-02T02:52:01.933Z,20.72
2022-10-02T02:54:45.482Z,21.59
2022-10-02T02:57:16.152Z,21.17
2022-10-02T02:59:46.780Z,21.12
2022-10-02T03:02:14.023Z,20.74
2022-10-02T03:04:40.978Z,21.20
2022-10-02T03:07:15.968Z,20.63
2022-10-02T03:10:04.633Z,21.26
2022-10-02T03:13:08.584Z,21.43
2022-10-02T03:15:48.077Z,20.95
2022-10-02T03:18:29.272Z,21.77
2022-10-02T03:21:10.607Z,21.39
2022-10-02T03:24:28.089Z,21.19
2022-10-02T03:27:23.149Z,21.38
2022-10-02T03:30:08.511Z,21.13
2022-10-02T03:32:38.076Z,20.72
2022-10-02T03:35:11.541Z,21.67
2022-10-02T03:37:42.046Z,20.76
2022-10-02T03:40:09.721Z,21.39
2022-10-02T03:42:37.129Z,21.74
2022-10-02T03:45:05.105Z,21.54
2022-10-02T03:47:32.721Z,23.03
2022-10-02T03:49:59.693Z,22.07
2022-10-02T03:52:27.012Z,22.23
2022-10-02T03:54:57.407Z,21.36
2022-10-02T03:57:25.927Z,23.30
2022-10-02T04:00:09.242Z,23.69
2022-10-02T04:02:59.500Z,23.68
2022-10-02T04:05:51.538Z,23.68
2022-10-02T04:08:24.344Z,22.61
2022-10-02T04:11:16.684Z,23.96
2022-10-02T04:13:48.421Z,23.87
2022-10-02T04:17:02.651Z,23.95
2022-10-02T04:19:40.319Z,23.64
2022-10-02T04:22:51.521Z,24.31
2022-10-02T04:25:34.760Z,23.79
2022-10-02T04:28:18.853Z,22.39
2022-10-02T04:30:45.847Z,23.41
2022-10-02T04:33:20.114Z,31.87
2022-10-02T04:36:27.644Z,31.23
2022-10-02T04:39:41.541Z,28.20
2022-10-02T04:42:46.959Z,27.90
2022-10-02T04:45:27.135Z,27.70
2022-10-02T04:48:24.955Z,28.65
2022-10-02T04:51:14.449Z,27.41
2022-10-02T04:54:38.484Z,26.87
2022-10-02T04:57:52.205Z,26.56
2022-10-02T05:00:23.420Z,25.66
2022-10-02T05:03:11.340Z,25.60
2022-10-02T05:06:37.025Z,26.17
2022-10-02T05:09:37.797Z,23.52
2022-10-02T05:12:34.125Z,24.87
2022-10-02T05:15:23.598Z,23.65
2022-10-02T05:18:21.460Z,27.58
2022-10-02T05:21:07.087Z,26.66
2022-10-02T05:24:12.261Z,26.17
2022-10-02T05:27:12.044Z,25.72
2022-10-02T05:29:51.249Z,24.78
2022-10-02T05:32:37.937Z,25.48
2022-10-02T05:35:28.703Z,25.38
2022-10-02T05:38:16.691Z,25.28
2022-10-02T05:41:00.963Z,26.45
2022-10-02T05:43:45.898Z,26.75
2022-10-02T05:46:25.560Z,25.61
2022-10-02T05:49:21.282Z,26.24
2022-10-02T05:51:53.674Z,26.79
2022-10-02T05:54:38.618Z,27.66
2022-10-02T05:57:22.056Z,28.81
2022-10-02T06:00:17.202Z,28.44
2022-10-02T06:03:10.032Z,27.10
2022-10-02T06:06:26.205Z,26.63
2022-10-02T06:09:19.966Z,25.73
2022-10-02T06:12:02.897Z,26.27
2022-10-02T06:14:50.552Z,26.67
2022-10-02T06:17:39.509Z,26.69
2022-10-02T06:20:27.512Z,25.89
2022-10-02T06:23:20.388Z,25.19
2022-10-02T06:26:01.372Z,26.42
2022-10-02T06:28:35.537Z,27.22
2022-10-02T06:31:11.749Z,26.46
2022-10-02T06:33:39.008Z,25.33
2022-10-02T06:36:20.189Z,25.99
2022-10-02T06:39:31.256Z,27.30
2022-10-02T06:42:35.073Z,27.72
2022-10-02T06:45:24.589Z,26.69
2022-10-02T06:48:34.544Z,25.76
2022-10-02T06:51:58.028Z,25.81
2022-10-02T06:54:37.941Z,26.55
2022-10-02T06:57:35.497Z,26.66
2022-10-02T07:00:14.762Z,26.81
2022-10-02T07:03:20.312Z,27.28
2022-10-02T07:06:08.171Z,26.34
2022-10-02T07:09:02.747Z,27.82
2022-10-02T07:11:52.463Z,26.94
2022-10-02T07:15:02.522Z,27.35
2022-10-02T07:17:41.102Z,26.82
2022-10-02T07:20:52.632Z,27.03
2022-10-02T07:23:42.090Z,27.48
2022-10-02T07:26:20.959Z,27.65
2022-10-02T07:29:20.467Z,26.61
2022-10-02T07:32:00.222Z,26.80
2022-10-02T07:34:59.070Z,27.03
2022-10-02T07:37:50.958Z,27.04
2022-10-02T07:40:29.800Z,26.76
2022-10-02T07:43:25.160Z,28.02
2022-10-02T07:46:39.456Z,26.96
2022-10-02T07:49:44.156Z,27.43
2022-10-02T07:52:45.675Z,27.44
2022-10-02T07:55:22.532Z,27.67
2022-10-02T07:58:12.653Z,27.16
2022-10-02T08:00:47.066Z,26.10
2022-10-02T08:03:45.229Z,26.79
2022-10-02T08:06:12.904Z,27.10
2022-10-02T08:09:11.241Z,27.94
2022-10-02T08:11:53.407Z,26.61
2022-10-02T08:14:45.332Z,27.73
2022-10-02T08:17:23.988Z,27.31
2022-10-02T08:19:52.320Z,27.54
2022-10-02T08:22:26.195Z,27.34
2022-10-02T08:24:59.390Z,27.66
2022-10-02T08:27:51.431Z,27.83
2022-10-02T08:30:18.902Z,26.84
2022-10-02T08:32:47.854Z,27.22
2022-10-02T08:35:20.076Z,28.08
2022-10-02T08:38:12.455Z,28.20
2022-10-02T08:41:16.398Z,26.99
2022-10-02T08:44:12.175Z,27.73
2022-10-02T08:47:18.200Z,27.68
2022-10-02T08:51:01.546Z,27.33
2022-10-02T08:53:44.932Z,27.58
2022-10-02T08:56:31.846Z,26.67
2022-10-02T08:59:19.039Z,26.88
2022-10-02T09:02:00.795Z,27.00
2022-10-02T09:05:05.800Z,27.21
2022-10-02T09:08:08.054Z,26.32
2022-10-02T09:11:30.036Z,26.52
2022-10-02T09:14:42.454Z,28.02
2022-10-02T09:17:47.845Z,26.52
2022-10-02T09:20:39.648Z,25.93
2022-10-02T09:23:36.170Z,23.71
2022-10-02T09:26:29.230Z,24.84
2022-10-02T09:30:03.604Z,25.81
2022-10-02T09:33:01.229Z,25.63
2022-10-02T09:35:55.162Z,26.51
2022-10-02T09:38:55.675Z,26.46
2022-10-02T09:42:00.356Z,27.13
2022-10-02T09:45:11.378Z,27.40
2022-10-02T09:48:22.803Z,26.41
2022-10-02T09:51:12.037Z,27.02
2022-10-02T09:54:10.996Z,27.16
2022-10-02T09:56:53.412Z,26.97
2022-10-02T09:59:38.278Z,25.93
2022-10-02T10:03:02.145Z,27.23
2022-10-02T10:05:59.291Z,27.02
2022-10-02T10:08:53.336Z,26.51
2022-10-02T10:11:39.326Z,26.89
2022-10-02T10:14:18.893Z,26.73
2022-10-02T10:17:42.514Z,27.41
2022-10-02T10:20:51.758Z,26.83
2022-10-02T10:23:24.621Z,25.40
2022-10-02T10:26:44.726Z,26.73
2022-10-02T10:29:23.825Z,26.62
2022-10-02T10:32:26.139Z,26.29
2022-10-02T10:35:08.078Z,27.06
2022-10-02T10:38:33.547Z,26.71
2022-10-02T10:41:36.310Z,26.80
2022-10-02T10:44:17.370Z,26.39
2022-10-02T10:47:21.622Z,26.10
2022-10-02T10:50:29.074Z,26.30
2022-10-02T10:53:38.975Z,26.49
2022-10-02T10:56:56.098Z,26.65
2022-10-02T10:59:50.907Z,26.52
2022-10-02T11:02:29.786Z,26.71
2022-10-02T11:05:38.141Z,27.41
2022-10-02T11:08:18.324Z,27.86
2022-10-02T11:11:01.308Z,28.19
2022-10-02T11:14:15.788Z,27.80
2022-10-02T11:17:31.319Z,27.36
2022-10-02T11:20:35.806Z,27.49
2022-10-02T11:23:21.168Z,27.26
2022-10-02T11:25:53.967Z,26.98
2022-10-02T11:28:56.258Z,27.00
2022-10-02T11:31:47.015Z,28.00
2022-10-02T11:34:55.173Z,27.94
2022-10-02T11:37:50.697Z,27.70
2022-10-02T11:40:49.029Z,27.89
2022-10-02T11:44:05.539Z,27.90
2022-10-02T11:46:46.111Z,27.11
2022-10-02T11:50:05.357Z,27.61
2022-10-02T11:53:04.327Z,26.76
2022-10-02T11:56:07.133Z,27.08
2022-10-02T11:58:58.224Z,27.10
2022-10-02T12:01:34.390Z,26.98
2022-10-02T12:04:23.112Z,26.95
2022-10-02T12:07:13.979Z,27.16
2022-10-02T12:10:05.454Z,26.25
2022-10-02T12:12:59.182Z,26.87
2022-10-02T12:15:33.208Z,27.12
2022-10-02T12:18:52.544Z,27.38
2022-10-02T12:21:47.011Z,26.66
2022-10-02T12:25:01.487Z,26.35
2022-10-02T12:27:44.926Z,27.18
2022-10-02T12:30:18.704Z,27.62
2022-10-02T12:32:54.580Z,26.88
2022-10-02T12:35:43.409Z,27.53
2022-10-02T12:38:28.436Z,27.43
2022-10-02T12:41:40.357Z,27.36
2022-10-02T12:44:56.375Z,27.31
2022-10-02T12:47:49.937Z,27.04
2022-10-02T12:51:08.937Z,26.71
2022-10-02T12:54:22.660Z,26.63
2022-10-02T12:57:52.753Z,27.10
2022-10-02T13:01:08.506Z,25.22
2022-10-02T13:04:28.411Z,25.09
2022-10-02T13:07:41.061Z,25.41
2022-10-02T13:10:30.806Z,26.41
2022-10-02T13:13:46.047Z,25.79
2022-10-02T13:16:58.279Z,26.08
2022-10-02T13:19:40.174Z,26.62
2022-10-02T13:22:31.417Z,26.93
2022-10-02T13:25:26.311Z,26.57
2022-10-02T13:28:52.937Z,27.17
2022-10-02T13:32:21.474Z,26.58
2022-10-02T13:35:21.876Z,27.32
2022-10-02T13:38:42.817Z,26.41
2022-10-02T13:41:53.512Z,25.84
2022-10-02T13:45:06.576Z,26.34
2022-10-02T13:48:13.258Z,26.27
2022-10-02T13:50:56.720Z,26.59
2022-10-02T13:53:54.337Z,26.55
2022-10-02T13:56:50.547Z,26.61
2022-10-02T13:59:26.200Z,26.66
2022-10-02T14:02:17.703Z,26.45
2022-10-02T14:04:51.779Z,26.31
2022-10-02T14:07:39.647Z,26.96
2022-10-02T14:10:28.393Z,27.07
2022-10-02T14:13:23.334Z,26.65
2022-10-02T14:16:09.148Z,26.90
2022-10-02T14:19:23.680Z,26.60
2022-10-02T14:22:38.403Z,26.38
2022-10-02T14:25:08.267Z,26.41
2022-10-02T14:28:02.293Z,27.01
2022-10-02T14:30:47.136Z,27.19
2022-10-02T14:34:01.816Z,26.96
2022-10-02T14:36:43.571Z,27.42
2022-10-02T14:39:32.114Z,27.87
2022-10-02T14:42:54.006Z,27.45
2022-10-02T14:46:03.410Z,27.56
2022-10-02T14:48:47.379Z,26.39
2022-10-02T14:51:30.611Z,27.41
2022-10-02T14:54:31.538Z,28.59
2022-10-02T14:57:22.934Z,27.38
2022-10-02T15:00:13.763Z,27.77
2022-10-02T15:03:10.202Z,27.23
2022-10-02T15:06:12.045Z,27.31
2022-10-02T15:08:51.114Z,27.40
2022-10-02T15:11:47.453Z,27.27
2022-10-02T15:14:49.033Z,27.45
2022-10-02T15:17:50.938Z,27.80
2022-10-02T15:20:30.062Z,28.00
2022-10-02T15:23:15.003Z,27.01
2022-10-02T15:25:57.558Z,26.75
2022-10-02T15:29:00.456Z,26.72
2022-10-02T15:32:18.320Z,26.65
2022-10-02T15:35:35.837Z,27.53
2022-10-02T15:38:27.792Z,27.39
2022-10-02T15:41:12.925Z,26.64
2022-10-02T15:43:58.066Z,26.49
2022-10-02T15:46:42.546Z,27.56
2022-10-02T15:49:49.800Z,27.75
2022-10-02T15:53:15.463Z,30.88
2022-10-02T15:55:48.936Z,29.75
2022-10-02T15:59:14.763Z,29.60
2022-10-02T16:02:06.758Z,29.98
2022-10-02T16:04:52.182Z,29.17
2022-10-02T16:07:51.087Z,29.42
2022-10-02T16:10:26.784Z,27.59
2022-10-02T16:13:17.859Z,28.36
2022-10-02T16:16:25.347Z,30.08
2022-10-02T16:19:30.404Z,29.89
2022-10-02T16:22:26.012Z,28.61
2022-10-02T16:25:25.161Z,28.94
2022-10-02T16:28:34.624Z,28.91
2022-10-02T16:31:20.793Z,29.23
2022-10-02T16:34:17.276Z,29.23
2022-10-02T16:37:02.964Z,29.46
2022-10-02T16:39:47.139Z,29.22
2022-10-02T16:42:48.197Z,29.01
2022-10-02T16:45:43.111Z,29.92
2022-10-02T16:48:18.879Z,27.73
2022-10-02T16:51:01.883Z,28.90
2022-10-02T16:54:10.410Z,28.87
2022-10-02T16:56:55.602Z,28.44
2022-10-02T16:59:42.679Z,29.03
2022-10-02T17:02:23.260Z,29.21
2022-10-02T17:05:25.590Z,29.54
2022-10-02T17:08:10.841Z,29.82
2022-10-02T17:11:28.839Z,29.42
2022-10-02T17:14:41.505Z,28.90
2022-10-02T17:17:50.194Z,29.73
2022-10-02T17:20:19.567Z,28.54
2022-10-02T17:23:37.286Z,28.32
2022-10-02T17:26:28.435Z,27.74
2022-10-02T17:29:23.827Z,27.48
2022-10-02T17:31:58.941Z,27.60
2022-10-02T17:34:32.905Z,27.31
2022-10-02T17:37:09.271Z,27.18
2022-10-02T17:39:56.978Z,29.38
2022-10-02T17:42:44.875Z,29.70
2022-10-02T17:45:45.958Z,29.94
2022-10-02T17:48:52.406Z,29.73
2022-10-02T17:54:59.195Z,28.89
2022-10-02T17:57:58.439Z,29.83
2022-10-02T18:00:26.368Z,29.19
2022-10-02T18:03:26.868Z,29.69
2022-10-02T18:06:16.300Z,28.91
2022-10-02T18:09:15.317Z,28.00
2022-10-02T18:12:10.283Z,27.96
2022-10-02T18:14:54.847Z,33.19
2022-10-02T18:17:54.359Z,30.63
2022-10-02T18:20:43.940Z,29.77
2022-10-02T18:23:36.017Z,29.32
2022-10-02T18:26:19.202Z,28.08
2022-10-02T18:29:02.917Z,28.99
2022-10-02T18:31:55.678Z,28.45
2022-10-02T18:34:43.667Z,28.65
2022-10-02T18:37:48.192Z,28.73
2022-10-02T18:40:53.326Z,28.30
2022-10-02T18:43:35.569Z,28.02
2022-10-02T18:46:55.584Z,28.11
2022-10-02T18:49:51.933Z,27.03
2022-10-02T18:52:49.625Z,27.92
2022-10-02T18:55:40.055Z,27.85
2022-10-02T18:58:50.897Z,27.52
2022-10-02T19:01:46.793Z,27.71
2022-10-02T19:04:51.294Z,27.06
2022-10-02T19:07:29.286Z,27.32
2022-10-02T19:10:31.646Z,28.08
2022-10-02T19:13:27.112Z,28.43
2022-10-02T19:16:01.135Z,28.31
2022-10-02T19:18:30.762Z,27.43
2022-10-02T19:21:25.044Z,27.70
2022-10-02T19:24:19.899Z,27.28
2022-10-02T19:26:52.492Z,27.28
2022-10-02T19:29:27.977Z,27.02
2022-10-02T19:31:59.733Z,27.47
2022-10-02T19:34:32.112Z,27.44
2022-10-02T19:37:05.089Z,27.08
2022-10-02T19:39:39.579Z,27.49
2022-10-02T19:42:16.348Z,27.69
2022-10-02T19:44:50.593Z,27.31
2022-10-02T19:47:48.707Z,27.54
2022-10-02T19:50:46.494Z,27.53
2022-10-02T19:53:39.126Z,26.71
2022-10-02T19:56:24.339Z,25.33
2022-10-02T19:58:58.580Z,26.12
2022-10-02T20:01:43.223Z,25.72
2022-10-02T20:04:18.826Z,25.26
2022-10-02T20:06:52.931Z,25.47
2022-10-02T20:09:36.574Z,25.39
2022-10-02T20:12:19.226Z,25.34
2022-10-02T20:15:03.607Z,25.60
2022-10-02T20:17:32.467Z,25.29
2022-10-02T20:20:38.870Z,25.38
2022-10-02T20:23:17.031Z,25.47
2022-10-02T20:25:52.229Z,25.34
2022-10-02T20:28:49.154Z,25.57
2022-10-02T20:31:43.012Z,25.34
2022-10-02T20:34:26.857Z,25.09
2022-10-02T20:37:05.135Z,25.51
2022-10-02T20:39:51.609Z,24.82
2022-10-02T20:42:27.101Z,24.90
2022-10-02T20:44:54.280Z,24.87
2022-10-02T20:47:52.242Z,25.26
2022-10-02T20:50:41.495Z,25.60
2022-10-02T20:53:41.612Z,25.98
2022-10-02T20:56:40.500Z,25.42
2022-10-02T20:59:45.296Z,25.81
2022-10-02T21:02:57.550Z,25.65
2022-10-02T21:05:53.349Z,25.26
2022-10-02T21:09:03.636Z,25.28
2022-10-02T21:11:46.483Z,25.61
2022-10-02T21:14:54.560Z,25.97
2022-10-02T21:17:27.581Z,25.30
2022-10-02T21:20:46.273Z,25.62
2022-10-02T21:23:35.965Z,24.82
2022-10-02T21:26:48.687Z,25.35
2022-10-02T21:29:36.115Z,24.94
2022-10-02T21:32:25.530Z,25.06
2022-10-02T21:35:31.938Z,24.86
2022-10-02T21:38:46.356Z,25.29
2022-10-02T21:41:54.326Z,24.48
2022-10-02T21:44:46.484Z,24.60
2022-10-02T21:47:34.883Z,24.58
2022-10-02T21:50:36.080Z,24.85
2022-10-02T21:53:42.722Z,24.27
2022-10-02T21:56:34.680Z,24.62
2022-10-02T22:00:07.795Z,24.75
2022-10-02T22:03:11.522Z,24.83
2022-10-02T22:06:39.072Z,24.14
2022-10-02T22:09:50.392Z,24.64
2022-10-02T22:12:43.680Z,24.73
2022-10-02T22:15:26.503Z,24.05
2022-10-02T22:18:44.611Z,24.39
2022-10-02T22:22:20.593Z,24.83
2022-10-02T22:25:13.877Z,24.64
2022-10-02T22:28:16.231Z,25.03
2022-10-02T22:31:19.453Z,25.33
2022-10-02T22:33:55.410Z,25.34
2022-10-02T22:36:46.984Z,25.25
2022-10-02T22:39:33.118Z,25.13
2022-10-02T22:42:13.392Z,24.72
2022-10-02T22:44:51.050Z,24.83
2022-10-02T22:47:47.051Z,24.24
2022-10-02T22:51:05.952Z,24.63
2022-10-02T22:53:49.734Z,24.59
2022-10-02T22:56:31.209Z,24.59
2022-10-02T22:59:13.289Z,24.42
2022-10-02T23:01:51.536Z,24.35
2022-10-02T23:04:47.223Z,24.58
2022-10-02T23:07:34.220Z,24.10
2022-10-02T23:10:25.817Z,24.25
2022-10-02T23:13:21.264Z,24.73
2022-10-02T23:15:53.993Z,24.03
2022-10-02T23:19:06.624Z,24.49
2022-10-02T23:22:13.840Z,24.77
2022-10-02T23:24:56.369Z,24.78
2022-10-02T23:27:50.482Z,24.18
2022-10-02T23:30:22.264Z,24.63
2022-10-02T23:33:29.884Z,24.81
2022-10-02T23:36:06.408Z,24.13
2022-10-02T23:38:42.555Z,24.23
2022-10-02T23:41:37.403Z,23.95
2022-10-02T23:44:40.074Z,24.88
2022-10-02T23:47:34.403Z,24.75
2022-10-02T23:50:02.028Z,23.85
2022-10-02T23:52:48.394Z,24.46
2022-10-02T23:55:31.538Z,23.99
2022-10-02T23:58:15.257Z,24.42
